sensor_id;sensor_type;location;lat;lon;timestamp;P1;durP1;ratioP1;P2;durP2;ratioP2
76417;SDS011;65250;47.602;19.002;2023-07-31T00:01:16;2.63;;;1.52;;
76417;SDS011;65250;47.602;19.002;2023-07-31T00:03:43;1.38;;;1.27;;
76417;SDS011;65250;47.602;19.002;2023-07-31T00:06:10;2.63;;;1.45;;
76417;SDS011;65250;47.602;19.002;2023-07-31T00:08:36;1.00;;;1.00;;
76417;SDS011;65250;47.602;19.002;2023-07-31T00:11:03;1.30;;;1.20;;
76417;SDS011;65250;47.602;19.002;2023-07-31T00:13:30;1.05;;;0.95;;
76417;SDS011;65250;47.602;19.002;2023-07-31T00:15:57;3.05;;;1.08;;
76417;SDS011;65250;47.602;19.002;2023-07-31T00:18:23;1.23;;;0.95;;
76417;SDS011;65250;47.602;19.002;2023-07-31T00:20:50;1.27;;;1.13;;
76417;SDS011;65250;47.602;19.002;2023-07-31T00:23:17;1.47;;;1.30;;
76417;SDS011;65250;47.602;19.002;2023-07-31T00:25:43;1.30;;;1.10;;
76417;SDS011;65250;47.602;19.002;2023-07-31T00:28:10;1.42;;;1.20;;
76417;SDS011;65250;47.602;19.002;2023-07-31T00:30:37;1.45;;;1.35;;
76417;SDS011;65250;47.602;19.002;2023-07-31T00:33:04;1.88;;;1.50;;
76417;SDS011;65250;47.602;19.002;2023-07-31T00:35:31;1.60;;;1.50;;
76417;SDS011;65250;47.602;19.002;2023-07-31T00:37:58;1.92;;;1.45;;
76417;SDS011;65250;47.602;19.002;2023-07-31T00:40:25;1.50;;;1.08;;
76417;SDS011;65250;47.602;19.002;2023-07-31T00:42:52;1.40;;;1.30;;
76417;SDS011;65250;47.602;19.002;2023-07-31T00:45:18;1.55;;;1.40;;
76417;SDS011;65250;47.602;19.002;2023-07-31T00:47:45;1.60;;;1.40;;
76417;SDS011;65250;47.602;19.002;2023-07-31T00:50:12;1.30;;;1.20;;
76417;SDS011;65250;47.602;19.002;2023-07-31T00:52:39;1.42;;;1.33;;
76417;SDS011;65250;47.602;19.002;2023-07-31T00:55:06;1.38;;;1.27;;
76417;SDS011;65250;47.602;19.002;2023-07-31T00:57:33;1.65;;;1.40;;
76417;SDS011;65250;47.602;19.002;2023-07-31T01:00:01;2.83;;;1.47;;
76417;SDS011;65250;47.602;19.002;2023-07-31T01:02:28;1.90;;;1.50;;
76417;SDS011;65250;47.602;19.002;2023-07-31T01:04:54;1.60;;;1.42;;
76417;SDS011;65250;47.602;19.002;2023-07-31T01:07:24;1.98;;;1.27;;
76417;SDS011;65250;47.602;19.002;2023-07-31T01:12:46;1.90;;;1.33;;
76417;SDS011;65250;47.602;19.002;2023-07-31T01:15:14;3.38;;;1.83;;
76417;SDS011;65250;47.602;19.002;2023-07-31T01:17:41;2.25;;;2.05;;
76417;SDS011;65250;47.602;19.002;2023-07-31T01:20:13;2.22;;;1.92;;
76417;SDS011;65250;47.602;19.002;2023-07-31T01:28:17;2.05;;;1.85;;
76417;SDS011;65250;47.602;19.002;2023-07-31T01:30:47;2.72;;;1.90;;
76417;SDS011;65250;47.602;19.002;2023-07-31T01:33:15;1.80;;;1.42;;
76417;SDS011;65250;47.602;19.002;2023-07-31T01:35:43;2.00;;;1.77;;
76417;SDS011;65250;47.602;19.002;2023-07-31T01:38:11;4.27;;;2.23;;
76417;SDS011;65250;47.602;19.002;2023-07-31T01:40:41;2.08;;;1.60;;
76417;SDS011;65250;47.602;19.002;2023-07-31T01:43:08;2.45;;;2.15;;
76417;SDS011;65250;47.602;19.002;2023-07-31T01:45:35;2.30;;;2.10;;
76417;SDS011;65250;47.602;19.002;2023-07-31T01:48:01;1.70;;;1.52;;
76417;SDS011;65250;47.602;19.002;2023-07-31T01:50:28;2.47;;;2.20;;
76417;SDS011;65250;47.602;19.002;2023-07-31T01:52:55;2.83;;;2.15;;
76417;SDS011;65250;47.602;19.002;2023-07-31T01:55:22;2.42;;;1.58;;
76417;SDS011;65250;47.602;19.002;2023-07-31T01:57:48;2.10;;;1.90;;
76417;SDS011;65250;47.602;19.002;2023-07-31T02:00:15;1.85;;;1.42;;
76417;SDS011;65250;47.602;19.002;2023-07-31T02:02:42;4.30;;;1.93;;
76417;SDS011;65250;47.602;19.002;2023-07-31T02:05:09;3.00;;;1.83;;
76417;SDS011;65250;47.602;19.002;2023-07-31T02:07:36;1.58;;;1.30;;
76417;SDS011;65250;47.602;19.002;2023-07-31T02:10:02;1.60;;;1.50;;
76417;SDS011;65250;47.602;19.002;2023-07-31T02:12:29;3.28;;;1.90;;
76417;SDS011;65250;47.602;19.002;2023-07-31T02:15:00;2.20;;;1.23;;
76417;SDS011;65250;47.602;19.002;2023-07-31T02:17:26;1.65;;;1.30;;
76417;SDS011;65250;47.602;19.002;2023-07-31T02:19:53;1.58;;;1.30;;
76417;SDS011;65250;47.602;19.002;2023-07-31T02:22:20;1.35;;;1.25;;
76417;SDS011;65250;47.602;19.002;2023-07-31T02:24:47;2.08;;;1.35;;
76417;SDS011;65250;47.602;19.002;2023-07-31T02:27:13;1.47;;;1.37;;
76417;SDS011;65250;47.602;19.002;2023-07-31T02:29:40;1.38;;;1.27;;
76417;SDS011;65250;47.602;19.002;2023-07-31T02:32:07;1.73;;;1.05;;
76417;SDS011;65250;47.602;19.002;2023-07-31T02:34:34;1.60;;;1.40;;
76417;SDS011;65250;47.602;19.002;2023-07-31T02:37:00;2.30;;;1.58;;
76417;SDS011;65250;47.602;19.002;2023-07-31T02:39:27;1.40;;;1.30;;
76417;SDS011;65250;47.602;19.002;2023-07-31T02:41:54;3.45;;;1.63;;
76417;SDS011;65250;47.602;19.002;2023-07-31T02:44:21;1.27;;;1.10;;
76417;SDS011;65250;47.602;19.002;2023-07-31T02:46:48;1.75;;;1.65;;
76417;SDS011;65250;47.602;19.002;2023-07-31T02:49:15;1.90;;;1.70;;
76417;SDS011;65250;47.602;19.002;2023-07-31T02:51:42;1.90;;;1.47;;
76417;SDS011;65250;47.602;19.002;2023-07-31T02:54:09;1.40;;;1.30;;
76417;SDS011;65250;47.602;19.002;2023-07-31T02:56:36;1.38;;;1.27;;
76417;SDS011;65250;47.602;19.002;2023-07-31T02:59:03;1.83;;;1.48;;
76417;SDS011;65250;47.602;19.002;2023-07-31T03:01:30;2.10;;;1.55;;
76417;SDS011;65250;47.602;19.002;2023-07-31T03:03:57;2.77;;;1.70;;
76417;SDS011;65250;47.602;19.002;2023-07-31T03:06:24;1.70;;;1.55;;
76417;SDS011;65250;47.602;19.002;2023-07-31T03:08:50;2.08;;;1.67;;
76417;SDS011;65250;47.602;19.002;2023-07-31T03:11:17;1.40;;;1.13;;
76417;SDS011;65250;47.602;19.002;2023-07-31T03:13:44;1.88;;;1.33;;
76417;SDS011;65250;47.602;19.002;2023-07-31T03:16:11;1.87;;;1.67;;
76417;SDS011;65250;47.602;19.002;2023-07-31T03:18:37;1.58;;;1.30;;
76417;SDS011;65250;47.602;19.002;2023-07-31T03:21:04;2.55;;;1.38;;
76417;SDS011;65250;47.602;19.002;2023-07-31T03:23:31;2.50;;;1.88;;
76417;SDS011;65250;47.602;19.002;2023-07-31T03:25:59;1.75;;;1.52;;
76417;SDS011;65250;47.602;19.002;2023-07-31T03:28:26;2.33;;;1.40;;
76417;SDS011;65250;47.602;19.002;2023-07-31T03:30:53;3.17;;;1.20;;
76417;SDS011;65250;47.602;19.002;2023-07-31T03:33:20;1.30;;;1.05;;
76417;SDS011;65250;47.602;19.002;2023-07-31T03:35:47;1.55;;;1.45;;
76417;SDS011;65250;47.602;19.002;2023-07-31T03:38:14;1.67;;;1.25;;
76417;SDS011;65250;47.602;19.002;2023-07-31T03:40:40;1.57;;;1.40;;
76417;SDS011;65250;47.602;19.002;2023-07-31T03:43:07;1.45;;;1.27;;
76417;SDS011;65250;47.602;19.002;2023-07-31T03:45:34;1.30;;;1.13;;
76417;SDS011;65250;47.602;19.002;2023-07-31T03:48:01;1.27;;;1.17;;
76417;SDS011;65250;47.602;19.002;2023-07-31T03:50:28;1.30;;;1.20;;
76417;SDS011;65250;47.602;19.002;2023-07-31T03:52:54;2.23;;;1.30;;
76417;SDS011;65250;47.602;19.002;2023-07-31T03:55:21;1.55;;;1.10;;
76417;SDS011;65250;47.602;19.002;2023-07-31T03:57:48;0.93;;;0.80;;
76417;SDS011;65250;47.602;19.002;2023-07-31T04:00:15;1.23;;;1.10;;
76417;SDS011;65250;47.602;19.002;2023-07-31T04:02:42;0.85;;;0.80;;
76417;SDS011;65250;47.602;19.002;2023-07-31T04:05:08;1.33;;;1.23;;
76417;SDS011;65250;47.602;19.002;2023-07-31T04:07:36;1.30;;;1.20;;
76417;SDS011;65250;47.602;19.002;2023-07-31T04:10:03;1.02;;;0.80;;
76417;SDS011;65250;47.602;19.002;2023-07-31T04:12:30;1.20;;;1.10;;
76417;SDS011;65250;47.602;19.002;2023-07-31T04:14:56;1.30;;;1.20;;
76417;SDS011;65250;47.602;19.002;2023-07-31T04:17:23;1.53;;;0.93;;
76417;SDS011;65250;47.602;19.002;2023-07-31T04:19:50;2.00;;;0.77;;
76417;SDS011;65250;47.602;19.002;2023-07-31T04:22:17;1.15;;;1.02;;
76417;SDS011;65250;47.602;19.002;2023-07-31T04:24:44;0.90;;;0.90;;
76417;SDS011;65250;47.602;19.002;2023-07-31T04:27:10;1.25;;;1.15;;
76417;SDS011;65250;47.602;19.002;2023-07-31T04:29:37;1.13;;;0.90;;
76417;SDS011;65250;47.602;19.002;2023-07-31T04:32:06;0.80;;;0.80;;
76417;SDS011;65250;47.602;19.002;2023-07-31T04:34:33;0.70;;;0.70;;
76417;SDS011;65250;47.602;19.002;2023-07-31T04:37:00;0.93;;;0.80;;
76417;SDS011;65250;47.602;19.002;2023-07-31T04:39:26;1.90;;;1.20;;
76417;SDS011;65250;47.602;19.002;2023-07-31T04:41:53;1.23;;;0.80;;
76417;SDS011;65250;47.602;19.002;2023-07-31T04:44:20;0.82;;;0.77;;
76417;SDS011;65250;47.602;19.002;2023-07-31T04:46:46;1.25;;;1.00;;
76417;SDS011;65250;47.602;19.002;2023-07-31T04:49:13;2.40;;;1.20;;
76417;SDS011;65250;47.602;19.002;2023-07-31T04:51:40;1.80;;;1.10;;
76417;SDS011;65250;47.602;19.002;2023-07-31T04:54:07;1.33;;;1.10;;
76417;SDS011;65250;47.602;19.002;2023-07-31T04:56:33;2.05;;;0.80;;
76417;SDS011;65250;47.602;19.002;2023-07-31T04:59:00;0.90;;;0.80;;
76417;SDS011;65250;47.602;19.002;2023-07-31T05:01:27;0.82;;;0.73;;
76417;SDS011;65250;47.602;19.002;2023-07-31T05:03:54;1.13;;;1.02;;
76417;SDS011;65250;47.602;19.002;2023-07-31T05:06:20;0.90;;;0.90;;
76417;SDS011;65250;47.602;19.002;2023-07-31T05:08:47;1.67;;;0.77;;
76417;SDS011;65250;47.602;19.002;2023-07-31T05:11:14;1.08;;;0.98;;
76417;SDS011;65250;47.602;19.002;2023-07-31T05:13:41;1.15;;;0.70;;
76417;SDS011;65250;47.602;19.002;2023-07-31T05:16:07;1.73;;;0.90;;
76417;SDS011;65250;47.602;19.002;2023-07-31T05:18:34;0.97;;;0.70;;
76417;SDS011;65250;47.602;19.002;2023-07-31T05:21:01;1.45;;;1.05;;
76417;SDS011;65250;47.602;19.002;2023-07-31T05:23:28;0.95;;;0.85;;
76417;SDS011;65250;47.602;19.002;2023-07-31T05:25:55;1.65;;;1.20;;
76417;SDS011;65250;47.602;19.002;2023-07-31T05:28:29;1.15;;;1.05;;
76417;SDS011;65250;47.602;19.002;2023-07-31T05:31:02;2.53;;;0.80;;
76417;SDS011;65250;47.602;19.002;2023-07-31T05:33:30;0.75;;;0.75;;
76417;SDS011;65250;47.602;19.002;2023-07-31T05:35:57;0.73;;;0.60;;
76417;SDS011;65250;47.602;19.002;2023-07-31T05:38:24;1.17;;;0.60;;
76417;SDS011;65250;47.602;19.002;2023-07-31T05:40:51;1.10;;;1.00;;
76417;SDS011;65250;47.602;19.002;2023-07-31T05:43:17;1.03;;;0.80;;
76417;SDS011;65250;47.602;19.002;2023-07-31T05:45:44;0.85;;;0.68;;
76417;SDS011;65250;47.602;19.002;2023-07-31T05:48:11;1.20;;;0.90;;
76417;SDS011;65250;47.602;19.002;2023-07-31T05:50:38;1.40;;;0.90;;
76417;SDS011;65250;47.602;19.002;2023-07-31T05:53:06;1.23;;;0.90;;
76417;SDS011;65250;47.602;19.002;2023-07-31T05:55:34;0.70;;;0.60;;
76417;SDS011;65250;47.602;19.002;2023-07-31T05:58:01;2.35;;;1.10;;
76417;SDS011;65250;47.602;19.002;2023-07-31T06:00:28;0.88;;;0.80;;
76417;SDS011;65250;47.602;19.002;2023-07-31T06:02:55;0.80;;;0.80;;
76417;SDS011;65250;47.602;19.002;2023-07-31T06:05:22;1.40;;;0.98;;
76417;SDS011;65250;47.602;19.002;2023-07-31T06:07:48;1.53;;;1.10;;
76417;SDS011;65250;47.602;19.002;2023-07-31T06:10:15;1.10;;;0.82;;
76417;SDS011;65250;47.602;19.002;2023-07-31T06:12:42;2.80;;;0.88;;
76417;SDS011;65250;47.602;19.002;2023-07-31T06:15:09;1.63;;;0.85;;
76417;SDS011;65250;47.602;19.002;2023-07-31T06:17:36;1.05;;;0.95;;
76417;SDS011;65250;47.602;19.002;2023-07-31T06:20:03;1.70;;;0.90;;
76417;SDS011;65250;47.602;19.002;2023-07-31T06:22:33;0.90;;;0.90;;
76417;SDS011;65250;47.602;19.002;2023-07-31T06:25:00;1.10;;;0.70;;
76417;SDS011;65250;47.602;19.002;2023-07-31T06:27:26;0.80;;;0.80;;
76417;SDS011;65250;47.602;19.002;2023-07-31T06:29:53;0.73;;;0.70;;
76417;SDS011;65250;47.602;19.002;2023-07-31T06:32:20;0.80;;;0.80;;
76417;SDS011;65250;47.602;19.002;2023-07-31T06:34:47;0.88;;;0.88;;
76417;SDS011;65250;47.602;19.002;2023-07-31T06:37:13;2.42;;;1.05;;
76417;SDS011;65250;47.602;19.002;2023-07-31T06:39:40;0.80;;;0.80;;
76417;SDS011;65250;47.602;19.002;2023-07-31T06:42:07;1.00;;;0.90;;
76417;SDS011;65250;47.602;19.002;2023-07-31T06:44:34;1.03;;;0.87;;
76417;SDS011;65250;47.602;19.002;2023-07-31T06:47:00;1.13;;;0.90;;
76417;SDS011;65250;47.602;19.002;2023-07-31T06:49:27;0.85;;;0.70;;
76417;SDS011;65250;47.602;19.002;2023-07-31T06:51:54;0.73;;;0.73;;
76417;SDS011;65250;47.602;19.002;2023-07-31T06:54:21;0.90;;;0.90;;
76417;SDS011;65250;47.602;19.002;2023-07-31T06:56:47;1.10;;;1.00;;
76417;SDS011;65250;47.602;19.002;2023-07-31T06:59:14;1.00;;;0.93;;
76417;SDS011;65250;47.602;19.002;2023-07-31T07:01:41;1.92;;;0.77;;
76417;SDS011;65250;47.602;19.002;2023-07-31T07:04:08;1.10;;;1.00;;
76417;SDS011;65250;47.602;19.002;2023-07-31T07:06:34;0.90;;;0.90;;
76417;SDS011;65250;47.602;19.002;2023-07-31T07:09:01;0.80;;;0.80;;
76417;SDS011;65250;47.602;19.002;2023-07-31T07:11:29;1.10;;;1.05;;
76417;SDS011;65250;47.602;19.002;2023-07-31T07:13:56;1.70;;;1.08;;
76417;SDS011;65250;47.602;19.002;2023-07-31T07:16:23;1.15;;;1.00;;
76417;SDS011;65250;47.602;19.002;2023-07-31T07:18:49;1.38;;;0.95;;
76417;SDS011;65250;47.602;19.002;2023-07-31T07:21:29;1.27;;;1.17;;
76417;SDS011;65250;47.602;19.002;2023-07-31T07:23:56;1.23;;;1.10;;
76417;SDS011;65250;47.602;19.002;2023-07-31T07:26:23;0.93;;;0.90;;
76417;SDS011;65250;47.602;19.002;2023-07-31T07:28:50;0.80;;;0.80;;
76417;SDS011;65250;47.602;19.002;2023-07-31T07:31:17;1.00;;;0.90;;
76417;SDS011;65250;47.602;19.002;2023-07-31T07:33:43;1.37;;;1.30;;
76417;SDS011;65250;47.602;19.002;2023-07-31T07:36:10;3.03;;;0.88;;
76417;SDS011;65250;47.602;19.002;2023-07-31T07:38:39;1.20;;;1.10;;
76417;SDS011;65250;47.602;19.002;2023-07-31T07:41:05;1.00;;;1.00;;
76417;SDS011;65250;47.602;19.002;2023-07-31T07:43:32;1.27;;;1.23;;
76417;SDS011;65250;47.602;19.002;2023-07-31T07:45:59;1.33;;;0.83;;
76417;SDS011;65250;47.602;19.002;2023-07-31T07:48:26;1.30;;;1.20;;
76417;SDS011;65250;47.602;19.002;2023-07-31T07:50:53;1.45;;;0.98;;
76417;SDS011;65250;47.602;19.002;2023-07-31T07:53:19;1.10;;;1.10;;
76417;SDS011;65250;47.602;19.002;2023-07-31T07:55:46;0.90;;;0.90;;
76417;SDS011;65250;47.602;19.002;2023-07-31T07:58:13;1.40;;;1.30;;
76417;SDS011;65250;47.602;19.002;2023-07-31T08:00:40;0.90;;;0.90;;
76417;SDS011;65250;47.602;19.002;2023-07-31T08:03:07;1.08;;;1.08;;
76417;SDS011;65250;47.602;19.002;2023-07-31T08:05:34;1.42;;;1.33;;
76417;SDS011;65250;47.602;19.002;2023-07-31T08:08:01;1.05;;;1.05;;
76417;SDS011;65250;47.602;19.002;2023-07-31T08:10:28;1.20;;;1.00;;
76417;SDS011;65250;47.602;19.002;2023-07-31T08:12:54;1.85;;;1.00;;
76417;SDS011;65250;47.602;19.002;2023-07-31T08:15:21;1.13;;;1.13;;
76417;SDS011;65250;47.602;19.002;2023-07-31T08:17:48;0.90;;;0.90;;
76417;SDS011;65250;47.602;19.002;2023-07-31T08:20:15;1.52;;;1.50;;
76417;SDS011;65250;47.602;19.002;2023-07-31T08:22:42;1.50;;;1.50;;
76417;SDS011;65250;47.602;19.002;2023-07-31T08:25:08;1.90;;;1.50;;
76417;SDS011;65250;47.602;19.002;2023-07-31T08:27:35;1.20;;;1.20;;
76417;SDS011;65250;47.602;19.002;2023-07-31T08:30:02;1.65;;;1.55;;
76417;SDS011;65250;47.602;19.002;2023-07-31T08:32:29;2.45;;;1.20;;
76417;SDS011;65250;47.602;19.002;2023-07-31T08:34:56;1.67;;;1.50;;
76417;SDS011;65250;47.602;19.002;2023-07-31T08:37:22;2.10;;;2.00;;
76417;SDS011;65250;47.602;19.002;2023-07-31T08:39:49;1.38;;;1.38;;
76417;SDS011;65250;47.602;19.002;2023-07-31T08:42:16;1.40;;;1.30;;
76417;SDS011;65250;47.602;19.002;2023-07-31T08:44:43;1.60;;;1.50;;
76417;SDS011;65250;47.602;19.002;2023-07-31T08:47:10;2.03;;;1.83;;
76417;SDS011;65250;47.602;19.002;2023-07-31T08:49:37;1.45;;;1.35;;
76417;SDS011;65250;47.602;19.002;2023-07-31T08:52:04;1.65;;;1.55;;
76417;SDS011;65250;47.602;19.002;2023-07-31T08:54:32;1.50;;;1.40;;
76417;SDS011;65250;47.602;19.002;2023-07-31T08:56:59;1.20;;;1.20;;
76417;SDS011;65250;47.602;19.002;2023-07-31T08:59:30;1.40;;;1.40;;
76417;SDS011;65250;47.602;19.002;2023-07-31T09:01:57;1.88;;;1.70;;
76417;SDS011;65250;47.602;19.002;2023-07-31T09:04:31;1.33;;;1.10;;
76417;SDS011;65250;47.602;19.002;2023-07-31T09:06:59;1.52;;;1.50;;
76417;SDS011;65250;47.602;19.002;2023-07-31T09:09:27;1.75;;;1.65;;
76417;SDS011;65250;47.602;19.002;2023-07-31T09:11:54;1.87;;;1.77;;
76417;SDS011;65250;47.602;19.002;2023-07-31T09:14:21;1.65;;;1.55;;
76417;SDS011;65250;47.602;19.002;2023-07-31T09:16:55;1.88;;;1.77;;
76417;SDS011;65250;47.602;19.002;2023-07-31T09:19:56;1.90;;;1.80;;
76417;SDS011;65250;47.602;19.002;2023-07-31T09:22:15;1.90;;;1.80;;
76417;SDS011;65250;47.602;19.002;2023-07-31T09:24:42;1.57;;;1.47;;
76417;SDS011;65250;47.602;19.002;2023-07-31T09:27:09;1.67;;;1.63;;
76417;SDS011;65250;47.602;19.002;2023-07-31T09:29:36;1.50;;;1.40;;
76417;SDS011;65250;47.602;19.002;2023-07-31T09:32:03;1.60;;;1.50;;
76417;SDS011;65250;47.602;19.002;2023-07-31T09:34:31;1.85;;;1.63;;
76417;SDS011;65250;47.602;19.002;2023-07-31T09:37:04;1.60;;;1.50;;
76417;SDS011;65250;47.602;19.002;2023-07-31T09:39:31;2.10;;;2.00;;
76417;SDS011;65250;47.602;19.002;2023-07-31T09:41:58;1.70;;;1.58;;
76417;SDS011;65250;47.602;19.002;2023-07-31T09:44:43;1.90;;;1.80;;
76417;SDS011;65250;47.602;19.002;2023-07-31T09:47:22;6.88;;;1.80;;
76417;SDS011;65250;47.602;19.002;2023-07-31T09:49:53;1.87;;;1.77;;
76417;SDS011;65250;47.602;19.002;2023-07-31T09:52:19;1.75;;;1.65;;
76417;SDS011;65250;47.602;19.002;2023-07-31T09:54:46;1.75;;;1.65;;
76417;SDS011;65250;47.602;19.002;2023-07-31T09:57:13;2.20;;;2.00;;
76417;SDS011;65250;47.602;19.002;2023-07-31T09:59:43;2.30;;;1.80;;
76417;SDS011;65250;47.602;19.002;2023-07-31T10:02:12;2.23;;;2.03;;
76417;SDS011;65250;47.602;19.002;2023-07-31T10:04:42;2.30;;;2.20;;
76417;SDS011;65250;47.602;19.002;2023-07-31T10:07:12;2.15;;;1.92;;
76417;SDS011;65250;47.602;19.002;2023-07-31T10:09:40;2.50;;;2.30;;
76417;SDS011;65250;47.602;19.002;2023-07-31T10:12:07;1.92;;;1.83;;
76417;SDS011;65250;47.602;19.002;2023-07-31T10:14:38;2.00;;;1.90;;
76417;SDS011;65250;47.602;19.002;2023-07-31T10:17:06;1.92;;;1.83;;
76417;SDS011;65250;47.602;19.002;2023-07-31T10:19:33;2.00;;;1.90;;
76417;SDS011;65250;47.602;19.002;2023-07-31T10:22:02;2.35;;;2.25;;
76417;SDS011;65250;47.602;19.002;2023-07-31T10:24:29;2.40;;;2.30;;
76417;SDS011;65250;47.602;19.002;2023-07-31T10:26:57;2.07;;;1.97;;
76417;SDS011;65250;47.602;19.002;2023-07-31T10:29:24;1.90;;;1.80;;
76417;SDS011;65250;47.602;19.002;2023-07-31T10:31:51;2.10;;;2.00;;
76417;SDS011;65250;47.602;19.002;2023-07-31T10:34:19;2.58;;;2.25;;
76417;SDS011;65250;47.602;19.002;2023-07-31T10:36:45;2.70;;;2.60;;
76417;SDS011;65250;47.602;19.002;2023-07-31T10:42:12;2.25;;;2.10;;
76417;SDS011;65250;47.602;19.002;2023-07-31T10:44:48;2.10;;;2.00;;
76417;SDS011;65250;47.602;19.002;2023-07-31T10:47:15;2.40;;;2.20;;
76417;SDS011;65250;47.602;19.002;2023-07-31T10:49:45;2.50;;;2.40;;
76417;SDS011;65250;47.602;19.002;2023-07-31T10:52:13;2.60;;;2.40;;
76417;SDS011;65250;47.602;19.002;2023-07-31T10:54:40;2.38;;;2.28;;
76417;SDS011;65250;47.602;19.002;2023-07-31T10:57:22;2.53;;;2.33;;
76417;SDS011;65250;47.602;19.002;2023-07-31T10:59:49;2.70;;;2.50;;
76417;SDS011;65250;47.602;19.002;2023-07-31T11:02:23;2.95;;;2.78;;
76417;SDS011;65250;47.602;19.002;2023-07-31T11:05:06;3.13;;;2.93;;
76417;SDS011;65250;47.602;19.002;2023-07-31T11:07:47;3.42;;;3.15;;
76417;SDS011;65250;47.602;19.002;2023-07-31T11:10:17;2.78;;;2.67;;
76417;SDS011;65250;47.602;19.002;2023-07-31T11:12:45;3.15;;;2.95;;
76417;SDS011;65250;47.602;19.002;2023-07-31T11:15:13;3.13;;;3.03;;
76417;SDS011;65250;47.602;19.002;2023-07-31T11:17:40;3.07;;;2.97;;
76417;SDS011;65250;47.602;19.002;2023-07-31T11:20:07;3.47;;;3.28;;
76417;SDS011;65250;47.602;19.002;2023-07-31T11:22:34;3.47;;;3.28;;
76417;SDS011;65250;47.602;19.002;2023-07-31T11:25:03;3.25;;;3.15;;
76417;SDS011;65250;47.602;19.002;2023-07-31T11:27:30;3.50;;;3.30;;
76417;SDS011;65250;47.602;19.002;2023-07-31T11:30:00;3.80;;;3.60;;
76417;SDS011;65250;47.602;19.002;2023-07-31T11:32:28;3.67;;;3.50;;
76417;SDS011;65250;47.602;19.002;2023-07-31T11:34:55;3.80;;;3.60;;
76417;SDS011;65250;47.602;19.002;2023-07-31T11:37:22;4.13;;;3.92;;
76417;SDS011;65250;47.602;19.002;2023-07-31T11:39:58;3.50;;;3.40;;
76417;SDS011;65250;47.602;19.002;2023-07-31T11:42:26;5.30;;;5.00;;
76417;SDS011;65250;47.602;19.002;2023-07-31T11:44:53;4.47;;;4.28;;
76417;SDS011;65250;47.602;19.002;2023-07-31T11:47:20;4.80;;;4.60;;
76417;SDS011;65250;47.602;19.002;2023-07-31T11:49:47;4.72;;;4.53;;
76417;SDS011;65250;47.602;19.002;2023-07-31T11:52:14;4.88;;;4.68;;
76417;SDS011;65250;47.602;19.002;2023-07-31T11:54:41;4.65;;;4.45;;
76417;SDS011;65250;47.602;19.002;2023-07-31T11:57:08;5.35;;;5.07;;
76417;SDS011;65250;47.602;19.002;2023-07-31T11:59:35;5.28;;;5.07;;
76417;SDS011;65250;47.602;19.002;2023-07-31T12:02:02;5.32;;;4.93;;
76417;SDS011;65250;47.602;19.002;2023-07-31T12:04:29;5.25;;;5.00;;
76417;SDS011;65250;47.602;19.002;2023-07-31T12:06:56;5.20;;;4.90;;
76417;SDS011;65250;47.602;19.002;2023-07-31T12:09:24;5.25;;;5.05;;
76417;SDS011;65250;47.602;19.002;2023-07-31T12:11:52;4.85;;;4.65;;
76417;SDS011;65250;47.602;19.002;2023-07-31T12:14:28;5.82;;;5.53;;
76417;SDS011;65250;47.602;19.002;2023-07-31T12:16:56;6.20;;;5.90;;
76417;SDS011;65250;47.602;19.002;2023-07-31T12:19:24;6.00;;;5.70;;
76417;SDS011;65250;47.602;19.002;2023-07-31T12:21:54;6.60;;;6.30;;
76417;SDS011;65250;47.602;19.002;2023-07-31T12:24:21;6.03;;;5.72;;
76417;SDS011;65250;47.602;19.002;2023-07-31T12:26:48;5.85;;;5.60;;
76417;SDS011;65250;47.602;19.002;2023-07-31T12:29:15;6.60;;;6.30;;
76417;SDS011;65250;47.602;19.002;2023-07-31T12:31:42;7.05;;;6.65;;
76417;SDS011;65250;47.602;19.002;2023-07-31T12:34:16;7.03;;;6.72;;
76417;SDS011;65250;47.602;19.002;2023-07-31T12:36:44;6.90;;;6.60;;
76417;SDS011;65250;47.602;19.002;2023-07-31T12:39:12;7.05;;;6.75;;
76417;SDS011;65250;47.602;19.002;2023-07-31T12:41:39;8.00;;;7.65;;
76417;SDS011;65250;47.602;19.002;2023-07-31T12:44:06;8.07;;;7.78;;
76417;SDS011;65250;47.602;19.002;2023-07-31T12:46:32;7.50;;;7.20;;
76417;SDS011;65250;47.602;19.002;2023-07-31T12:48:59;8.10;;;7.70;;
76417;SDS011;65250;47.602;19.002;2023-07-31T12:51:26;8.05;;;7.63;;
76417;SDS011;65250;47.602;19.002;2023-07-31T12:53:53;8.18;;;7.78;;
76417;SDS011;65250;47.602;19.002;2023-07-31T12:56:20;7.50;;;7.18;;
76417;SDS011;65250;47.602;19.002;2023-07-31T12:58:47;8.10;;;7.70;;
76417;SDS011;65250;47.602;19.002;2023-07-31T13:01:13;8.13;;;7.82;;
76417;SDS011;65250;47.602;19.002;2023-07-31T13:03:40;8.52;;;8.23;;
76417;SDS011;65250;47.602;19.002;2023-07-31T13:06:07;8.93;;;8.52;;
76417;SDS011;65250;47.602;19.002;2023-07-31T13:08:34;8.95;;;8.55;;
76417;SDS011;65250;47.602;19.002;2023-07-31T13:11:01;9.27;;;8.88;;
76417;SDS011;65250;47.602;19.002;2023-07-31T13:13:29;9.80;;;9.20;;
76417;SDS011;65250;47.602;19.002;2023-07-31T13:15:58;9.85;;;9.35;;
76417;SDS011;65250;47.602;19.002;2023-07-31T13:18:25;8.30;;;7.90;;
76417;SDS011;65250;47.602;19.002;2023-07-31T13:20:52;7.57;;;7.28;;
76417;SDS011;65250;47.602;19.002;2023-07-31T13:23:19;8.32;;;7.93;;
76417;SDS011;65250;47.602;19.002;2023-07-31T13:25:45;8.77;;;8.27;;
76417;SDS011;65250;47.602;19.002;2023-07-31T13:28:12;9.63;;;9.23;;
76417;SDS011;65250;47.602;19.002;2023-07-31T13:30:39;9.13;;;8.73;;
76417;SDS011;65250;47.602;19.002;2023-07-31T13:33:06;8.20;;;7.70;;
76417;SDS011;65250;47.602;19.002;2023-07-31T13:35:46;7.85;;;7.53;;
76417;SDS011;65250;47.602;19.002;2023-07-31T13:38:13;7.80;;;7.50;;
76417;SDS011;65250;47.602;19.002;2023-07-31T13:40:40;7.70;;;7.40;;
76417;SDS011;65250;47.602;19.002;2023-07-31T13:43:06;8.33;;;7.93;;
76417;SDS011;65250;47.602;19.002;2023-07-31T13:45:33;8.65;;;8.27;;
76417;SDS011;65250;47.602;19.002;2023-07-31T13:48:00;7.63;;;7.32;;
76417;SDS011;65250;47.602;19.002;2023-07-31T13:50:27;7.85;;;7.35;;
76417;SDS011;65250;47.602;19.002;2023-07-31T13:52:53;8.25;;;7.85;;
76417;SDS011;65250;47.602;19.002;2023-07-31T13:55:20;7.75;;;7.40;;
76417;SDS011;65250;47.602;19.002;2023-07-31T13:57:47;8.20;;;7.80;;
76417;SDS011;65250;47.602;19.002;2023-07-31T14:00:15;7.15;;;6.85;;
76417;SDS011;65250;47.602;19.002;2023-07-31T14:02:42;7.70;;;7.32;;
76417;SDS011;65250;47.602;19.002;2023-07-31T14:05:08;6.88;;;6.57;;
76417;SDS011;65250;47.602;19.002;2023-07-31T14:07:36;6.72;;;6.43;;
76417;SDS011;65250;47.602;19.002;2023-07-31T14:10:02;7.63;;;7.22;;
76417;SDS011;65250;47.602;19.002;2023-07-31T14:12:30;6.68;;;6.38;;
76417;SDS011;65250;47.602;19.002;2023-07-31T14:15:07;6.15;;;5.85;;
76417;SDS011;65250;47.602;19.002;2023-07-31T14:17:34;5.43;;;5.22;;
76417;SDS011;65250;47.602;19.002;2023-07-31T14:20:02;4.68;;;4.38;;
76417;SDS011;65250;47.602;19.002;2023-07-31T14:22:30;4.20;;;3.90;;
76417;SDS011;65250;47.602;19.002;2023-07-31T14:24:57;4.18;;;3.97;;
76417;SDS011;65250;47.602;19.002;2023-07-31T14:27:24;3.97;;;3.75;;
76417;SDS011;65250;47.602;19.002;2023-07-31T14:29:51;3.42;;;3.33;;
76417;SDS011;65250;47.602;19.002;2023-07-31T14:32:17;4.50;;;4.30;;
76417;SDS011;65250;47.602;19.002;2023-07-31T14:34:44;4.20;;;4.00;;
76417;SDS011;65250;47.602;19.002;2023-07-31T14:37:11;4.40;;;4.20;;
76417;SDS011;65250;47.602;19.002;2023-07-31T14:39:38;4.97;;;4.78;;
76417;SDS011;65250;47.602;19.002;2023-07-31T14:42:06;5.50;;;5.20;;
76417;SDS011;65250;47.602;19.002;2023-07-31T14:44:33;5.70;;;5.40;;
76417;SDS011;65250;47.602;19.002;2023-07-31T14:47:00;5.90;;;5.60;;